sensor_id;sensor_type;location;lat;lon;timestamp;P1;durP1;ratioP1;P2;durP2;ratioP2
77217;SDS011;66214;51.302;17.068;2024-02-26T00:00:04;20.40;;;9.30;;
77217;SDS011;66214;51.302;17.068;2024-02-26T00:02:37;17.40;;;9.00;;
77217;SDS011;66214;51.302;17.068;2024-02-26T00:05:07;15.60;;;8.10;;
77217;SDS011;66214;51.302;17.068;2024-02-26T00:07:38;18.60;;;8.70;;
77217;SDS011;66214;51.302;17.068;2024-02-26T00:10:07;15.20;;;7.60;;
77217;SDS011;66214;51.302;17.068;2024-02-26T00:12:36;17.30;;;8.40;;
77217;SDS011;66214;51.302;17.068;2024-02-26T00:15:08;18.10;;;8.60;;
77217;SDS011;66214;51.302;17.068;2024-02-26T00:17:37;17.10;;;8.40;;
77217;SDS011;66214;51.302;17.068;2024-02-26T00:20:06;17.20;;;8.40;;
77217;SDS011;66214;51.302;17.068;2024-02-26T00:22:39;18.50;;;9.00;;
77217;SDS011;66214;51.302;17.068;2024-02-26T00:25:09;17.30;;;7.70;;
77217;SDS011;66214;51.302;17.068;2024-02-26T00:27:39;17.20;;;7.90;;
77217;SDS011;66214;51.302;17.068;2024-02-26T00:30:10;17.50;;;7.90;;
77217;SDS011;66214;51.302;17.068;2024-02-26T00:32:41;16.00;;;7.90;;
77217;SDS011;66214;51.302;17.068;2024-02-26T00:35:13;15.30;;;6.80;;
77217;SDS011;66214;51.302;17.068;2024-02-26T00:37:43;21.90;;;8.50;;
77217;SDS011;66214;51.302;17.068;2024-02-26T00:40:12;20.90;;;8.90;;
77217;SDS011;66214;51.302;17.068;2024-02-26T00:42:41;18.90;;;8.20;;
77217;SDS011;66214;51.302;17.068;2024-02-26T00:45:14;19.50;;;8.50;;
77217;SDS011;66214;51.302;17.068;2024-02-26T00:47:44;16.40;;;8.00;;
77217;SDS011;66214;51.302;17.068;2024-02-26T00:50:15;16.20;;;7.20;;
77217;SDS011;66214;51.302;17.068;2024-02-26T00:52:44;15.60;;;7.50;;
77217;SDS011;66214;51.302;17.068;2024-02-26T00:55:12;15.60;;;7.50;;
77217;SDS011;66214;51.302;17.068;2024-02-26T00:57:41;17.90;;;7.70;;
77217;SDS011;66214;51.302;17.068;2024-02-26T01:00:11;17.10;;;7.60;;
77217;SDS011;66214;51.302;17.068;2024-02-26T01:06:08;15.80;;;7.60;;
77217;SDS011;66214;51.302;17.068;2024-02-26T01:08:38;18.60;;;8.70;;
77217;SDS011;66214;51.302;17.068;2024-02-26T01:11:07;16.10;;;8.30;;
77217;SDS011;66214;51.302;17.068;2024-02-26T01:13:36;21.10;;;8.00;;
77217;SDS011;66214;51.302;17.068;2024-02-26T01:16:05;20.10;;;8.70;;
77217;SDS011;66214;51.302;17.068;2024-02-26T01:18:34;17.50;;;8.00;;
77217;SDS011;66214;51.302;17.068;2024-02-26T01:21:03;16.90;;;7.60;;
77217;SDS011;66214;51.302;17.068;2024-02-26T01:23:34;16.10;;;7.40;;
77217;SDS011;66214;51.302;17.068;2024-02-26T01:26:04;19.80;;;9.40;;
77217;SDS011;66214;51.302;17.068;2024-02-26T01:28:32;19.50;;;9.20;;
77217;SDS011;66214;51.302;17.068;2024-02-26T01:31:01;21.50;;;9.30;;
77217;SDS011;66214;51.302;17.068;2024-02-26T01:33:31;20.40;;;9.10;;
77217;SDS011;66214;51.302;17.068;2024-02-26T01:35:59;18.70;;;8.60;;
77217;SDS011;66214;51.302;17.068;2024-02-26T01:38:28;20.40;;;9.40;;
77217;SDS011;66214;51.302;17.068;2024-02-26T01:40:57;17.80;;;8.30;;
77217;SDS011;66214;51.302;17.068;2024-02-26T01:43:25;15.70;;;7.20;;
77217;SDS011;66214;51.302;17.068;2024-02-26T01:45:54;18.40;;;7.70;;
77217;SDS011;66214;51.302;17.068;2024-02-26T01:48:23;15.30;;;7.90;;
77217;SDS011;66214;51.302;17.068;2024-02-26T01:50:52;16.30;;;7.30;;
77217;SDS011;66214;51.302;17.068;2024-02-26T01:53:21;19.50;;;7.30;;
77217;SDS011;66214;51.302;17.068;2024-02-26T01:55:51;18.30;;;8.20;;
77217;SDS011;66214;51.302;17.068;2024-02-26T01:58:20;21.10;;;10.20;;
77217;SDS011;66214;51.302;17.068;2024-02-26T02:00:50;21.60;;;10.30;;
77217;SDS011;66214;51.302;17.068;2024-02-26T02:03:18;21.90;;;9.90;;
77217;SDS011;66214;51.302;17.068;2024-02-26T02:05:47;20.40;;;9.40;;
77217;SDS011;66214;51.302;17.068;2024-02-26T02:08:16;19.40;;;8.20;;
77217;SDS011;66214;51.302;17.068;2024-02-26T02:10:45;19.80;;;7.90;;
77217;SDS011;66214;51.302;17.068;2024-02-26T02:13:15;16.20;;;7.20;;
77217;SDS011;66214;51.302;17.068;2024-02-26T02:15:43;14.80;;;7.30;;
77217;SDS011;66214;51.302;17.068;2024-02-26T02:18:12;18.90;;;8.30;;
77217;SDS011;66214;51.302;17.068;2024-02-26T02:20:40;18.90;;;9.50;;
77217;SDS011;66214;51.302;17.068;2024-02-26T02:23:09;17.10;;;7.90;;
77217;SDS011;66214;51.302;17.068;2024-02-26T02:25:37;21.90;;;10.40;;
77217;SDS011;66214;51.302;17.068;2024-02-26T02:28:06;20.00;;;9.40;;
77217;SDS011;66214;51.302;17.068;2024-02-26T02:30:34;19.00;;;9.80;;
77217;SDS011;66214;51.302;17.068;2024-02-26T02:33:04;17.90;;;9.30;;
77217;SDS011;66214;51.302;17.068;2024-02-26T02:35:32;17.50;;;8.40;;
77217;SDS011;66214;51.302;17.068;2024-02-26T02:38:01;19.80;;;9.00;;
77217;SDS011;66214;51.302;17.068;2024-02-26T02:40:29;18.70;;;8.70;;
77217;SDS011;66214;51.302;17.068;2024-02-26T02:42:57;18.20;;;8.60;;
77217;SDS011;66214;51.302;17.068;2024-02-26T02:45:28;23.20;;;9.50;;
77217;SDS011;66214;51.302;17.068;2024-02-26T02:47:56;20.30;;;10.50;;
77217;SDS011;66214;51.302;17.068;2024-02-26T02:50:25;19.20;;;9.10;;
77217;SDS011;66214;51.302;17.068;2024-02-26T02:52:54;20.80;;;10.20;;
77217;SDS011;66214;51.302;17.068;2024-02-26T02:55:22;18.20;;;8.90;;
77217;SDS011;66214;51.302;17.068;2024-02-26T02:57:50;19.60;;;8.20;;
77217;SDS011;66214;51.302;17.068;2024-02-26T03:00:20;18.30;;;8.40;;
77217;SDS011;66214;51.302;17.068;2024-02-26T03:02:50;17.40;;;7.90;;
77217;SDS011;66214;51.302;17.068;2024-02-26T03:05:18;18.40;;;9.10;;
77217;SDS011;66214;51.302;17.068;2024-02-26T03:07:47;18.70;;;8.70;;
77217;SDS011;66214;51.302;17.068;2024-02-26T03:10:15;22.20;;;9.80;;
77217;SDS011;66214;51.302;17.068;2024-02-26T03:12:43;23.30;;;10.50;;
77217;SDS011;66214;51.302;17.068;2024-02-26T03:15:12;24.80;;;12.00;;
77217;SDS011;66214;51.302;17.068;2024-02-26T03:17:40;29.40;;;12.00;;
77217;SDS011;66214;51.302;17.068;2024-02-26T03:20:09;27.60;;;11.30;;
77217;SDS011;66214;51.302;17.068;2024-02-26T03:22:41;20.50;;;9.70;;
77217;SDS011;66214;51.302;17.068;2024-02-26T03:25:09;19.60;;;8.10;;
77217;SDS011;66214;51.302;17.068;2024-02-26T03:27:37;21.10;;;9.80;;
77217;SDS011;66214;51.302;17.068;2024-02-26T03:30:06;19.80;;;9.50;;
77217;SDS011;66214;51.302;17.068;2024-02-26T03:32:34;21.60;;;9.80;;
77217;SDS011;66214;51.302;17.068;2024-02-26T03:35:02;23.60;;;10.40;;
77217;SDS011;66214;51.302;17.068;2024-02-26T03:37:30;22.50;;;10.60;;
77217;SDS011;66214;51.302;17.068;2024-02-26T03:39:59;24.60;;;12.00;;
77217;SDS011;66214;51.302;17.068;2024-02-26T03:42:29;25.50;;;12.20;;
77217;SDS011;66214;51.302;17.068;2024-02-26T03:44:58;21.70;;;10.80;;
77217;SDS011;66214;51.302;17.068;2024-02-26T03:47:26;21.20;;;11.00;;
77217;SDS011;66214;51.302;17.068;2024-02-26T03:49:55;19.70;;;10.40;;
77217;SDS011;66214;51.302;17.068;2024-02-26T03:52:23;26.30;;;10.90;;
77217;SDS011;66214;51.302;17.068;2024-02-26T03:54:51;24.00;;;11.20;;
77217;SDS011;66214;51.302;17.068;2024-02-26T03:57:19;21.10;;;10.60;;
77217;SDS011;66214;51.302;17.068;2024-02-26T03:59:48;24.80;;;11.30;;
77217;SDS011;66214;51.302;17.068;2024-02-26T04:02:16;27.00;;;12.20;;
77217;SDS011;66214;51.302;17.068;2024-02-26T04:04:45;25.30;;;11.70;;
77217;SDS011;66214;51.302;17.068;2024-02-26T04:07:14;29.70;;;12.50;;
77217;SDS011;66214;51.302;17.068;2024-02-26T04:09:42;23.70;;;12.10;;
77217;SDS011;66214;51.302;17.068;2024-02-26T04:12:11;26.00;;;11.50;;
77217;SDS011;66214;51.302;17.068;2024-02-26T04:14:39;22.00;;;10.50;;
77217;SDS011;66214;51.302;17.068;2024-02-26T04:17:07;23.50;;;12.40;;
77217;SDS011;66214;51.302;17.068;2024-02-26T04:19:35;24.40;;;11.40;;
77217;SDS011;66214;51.302;17.068;2024-02-26T04:22:04;22.20;;;10.00;;
77217;SDS011;66214;51.302;17.068;2024-02-26T04:24:33;30.40;;;12.60;;
77217;SDS011;66214;51.302;17.068;2024-02-26T04:27:01;28.70;;;12.30;;
77217;SDS011;66214;51.302;17.068;2024-02-26T04:29:29;30.30;;;13.00;;
77217;SDS011;66214;51.302;17.068;2024-02-26T04:31:57;29.40;;;13.30;;
77217;SDS011;66214;51.302;17.068;2024-02-26T04:34:25;28.50;;;13.50;;
77217;SDS011;66214;51.302;17.068;2024-02-26T04:36:54;26.70;;;13.10;;
77217;SDS011;66214;51.302;17.068;2024-02-26T04:39:22;26.00;;;13.40;;
77217;SDS011;66214;51.302;17.068;2024-02-26T04:41:50;23.80;;;12.00;;
77217;SDS011;66214;51.302;17.068;2024-02-26T04:44:18;26.30;;;12.10;;
77217;SDS011;66214;51.302;17.068;2024-02-26T04:46:48;25.60;;;12.50;;
77217;SDS011;66214;51.302;17.068;2024-02-26T04:49:16;25.00;;;11.00;;
77217;SDS011;66214;51.302;17.068;2024-02-26T04:51:44;29.20;;;13.40;;
77217;SDS011;66214;51.302;17.068;2024-02-26T04:54:12;34.10;;;15.30;;
77217;SDS011;66214;51.302;17.068;2024-02-26T04:56:41;33.60;;;15.80;;
77217;SDS011;66214;51.302;17.068;2024-02-26T04:59:09;30.10;;;13.90;;
77217;SDS011;66214;51.302;17.068;2024-02-26T05:03:53;26.70;;;13.20;;
77217;SDS011;66214;51.302;17.068;2024-02-26T05:06:21;25.10;;;12.20;;
77217;SDS011;66214;51.302;17.068;2024-02-26T05:08:49;27.40;;;11.90;;
77217;SDS011;66214;51.302;17.068;2024-02-26T05:11:17;25.20;;;12.50;;
77217;SDS011;66214;51.302;17.068;2024-02-26T05:13:47;26.10;;;12.10;;
77217;SDS011;66214;51.302;17.068;2024-02-26T05:16:16;30.90;;;13.50;;
77217;SDS011;66214;51.302;17.068;2024-02-26T05:18:44;32.10;;;14.50;;
77217;SDS011;66214;51.302;17.068;2024-02-26T05:21:12;30.50;;;14.50;;
77217;SDS011;66214;51.302;17.068;2024-02-26T05:23:40;29.70;;;14.50;;
77217;SDS011;66214;51.302;17.068;2024-02-26T05:26:11;27.20;;;12.80;;
77217;SDS011;66214;51.302;17.068;2024-02-26T05:28:39;29.50;;;13.30;;
77217;SDS011;66214;51.302;17.068;2024-02-26T05:31:07;25.60;;;12.90;;
77217;SDS011;66214;51.302;17.068;2024-02-26T05:33:53;26.70;;;13.20;;
77217;SDS011;66214;51.302;17.068;2024-02-26T05:36:22;25.00;;;12.90;;
77217;SDS011;66214;51.302;17.068;2024-02-26T05:38:50;30.00;;;13.20;;
77217;SDS011;66214;51.302;17.068;2024-02-26T05:41:18;35.60;;;15.80;;
77217;SDS011;66214;51.302;17.068;2024-02-26T05:43:50;28.20;;;14.50;;
77217;SDS011;66214;51.302;17.068;2024-02-26T05:46:19;28.50;;;15.10;;
77217;SDS011;66214;51.302;17.068;2024-02-26T05:48:52;32.10;;;15.10;;
77217;SDS011;66214;51.302;17.068;2024-02-26T05:51:21;30.40;;;14.80;;
77217;SDS011;66214;51.302;17.068;2024-02-26T05:53:49;26.70;;;12.70;;
77217;SDS011;66214;51.302;17.068;2024-02-26T05:56:22;27.50;;;13.10;;
77217;SDS011;66214;51.302;17.068;2024-02-26T05:58:50;30.00;;;14.80;;
77217;SDS011;66214;51.302;17.068;2024-02-26T06:01:19;25.20;;;12.10;;
77217;SDS011;66214;51.302;17.068;2024-02-26T06:03:47;26.20;;;12.90;;
77217;SDS011;66214;51.302;17.068;2024-02-26T06:06:16;31.40;;;14.90;;
77217;SDS011;66214;51.302;17.068;2024-02-26T06:08:44;31.30;;;15.30;;
77217;SDS011;66214;51.302;17.068;2024-02-26T06:11:12;33.50;;;15.60;;
77217;SDS011;66214;51.302;17.068;2024-02-26T06:13:40;35.40;;;15.80;;
77217;SDS011;66214;51.302;17.068;2024-02-26T06:16:08;33.80;;;15.90;;
77217;SDS011;66214;51.302;17.068;2024-02-26T06:18:37;46.00;;;21.40;;
77217;SDS011;66214;51.302;17.068;2024-02-26T06:21:09;27.90;;;14.20;;
77217;SDS011;66214;51.302;17.068;2024-02-26T06:27:08;26.70;;;13.30;;
77217;SDS011;66214;51.302;17.068;2024-02-26T06:29:36;29.00;;;13.30;;
77217;SDS011;66214;51.302;17.068;2024-02-26T06:32:05;26.40;;;13.00;;
77217;SDS011;66214;51.302;17.068;2024-02-26T06:34:34;30.10;;;15.50;;
77217;SDS011;66214;51.302;17.068;2024-02-26T06:37:03;26.20;;;13.20;;
77217;SDS011;66214;51.302;17.068;2024-02-26T06:39:31;29.90;;;14.10;;
77217;SDS011;66214;51.302;17.068;2024-02-26T06:41:59;24.00;;;11.80;;
77217;SDS011;66214;51.302;17.068;2024-02-26T06:44:29;21.80;;;11.50;;
77217;SDS011;66214;51.302;17.068;2024-02-26T06:46:59;25.20;;;12.70;;
77217;SDS011;66214;51.302;17.068;2024-02-26T06:49:28;20.90;;;10.90;;
77217;SDS011;66214;51.302;17.068;2024-02-26T06:51:57;26.40;;;11.80;;
77217;SDS011;66214;51.302;17.068;2024-02-26T06:54:25;23.30;;;10.00;;
77217;SDS011;66214;51.302;17.068;2024-02-26T06:56:53;25.70;;;11.70;;
77217;SDS011;66214;51.302;17.068;2024-02-26T06:59:22;29.40;;;14.40;;
77217;SDS011;66214;51.302;17.068;2024-02-26T07:01:51;25.60;;;12.50;;
77217;SDS011;66214;51.302;17.068;2024-02-26T07:04:20;24.50;;;11.90;;
77217;SDS011;66214;51.302;17.068;2024-02-26T07:06:48;22.80;;;11.70;;
77217;SDS011;66214;51.302;17.068;2024-02-26T07:09:16;20.50;;;10.70;;
77217;SDS011;66214;51.302;17.068;2024-02-26T07:11:44;23.70;;;11.70;;
77217;SDS011;66214;51.302;17.068;2024-02-26T07:14:12;20.30;;;10.90;;
77217;SDS011;66214;51.302;17.068;2024-02-26T07:16:41;23.60;;;11.30;;
77217;SDS011;66214;51.302;17.068;2024-02-26T07:19:09;26.80;;;12.90;;
77217;SDS011;66214;51.302;17.068;2024-02-26T07:21:37;21.40;;;11.20;;
77217;SDS011;66214;51.302;17.068;2024-02-26T07:27:33;23.60;;;11.90;;
77217;SDS011;66214;51.302;17.068;2024-02-26T07:30:02;23.50;;;11.50;;
77217;SDS011;66214;51.302;17.068;2024-02-26T07:32:31;20.60;;;9.90;;
77217;SDS011;66214;51.302;17.068;2024-02-26T07:34:59;21.50;;;10.60;;
77217;SDS011;66214;51.302;17.068;2024-02-26T07:37:27;22.20;;;9.80;;
77217;SDS011;66214;51.302;17.068;2024-02-26T07:39:56;21.80;;;10.50;;
77217;SDS011;66214;51.302;17.068;2024-02-26T07:42:24;21.30;;;11.30;;
77217;SDS011;66214;51.302;17.068;2024-02-26T07:44:52;22.90;;;11.40;;
77217;SDS011;66214;51.302;17.068;2024-02-26T07:47:20;22.70;;;10.50;;
77217;SDS011;66214;51.302;17.068;2024-02-26T07:49:49;18.40;;;9.40;;
77217;SDS011;66214;51.302;17.068;2024-02-26T07:52:17;20.10;;;10.40;;
77217;SDS011;66214;51.302;17.068;2024-02-26T07:54:46;22.50;;;10.80;;
77217;SDS011;66214;51.302;17.068;2024-02-26T07:57:14;23.40;;;11.20;;
77217;SDS011;66214;51.302;17.068;2024-02-26T07:59:45;21.40;;;10.70;;
77217;SDS011;66214;51.302;17.068;2024-02-26T08:03:53;23.30;;;11.10;;
77217;SDS011;66214;51.302;17.068;2024-02-26T08:06:23;23.60;;;11.70;;
77217;SDS011;66214;51.302;17.068;2024-02-26T08:08:52;23.30;;;11.20;;
77217;SDS011;66214;51.302;17.068;2024-02-26T08:11:20;22.20;;;11.10;;
77217;SDS011;66214;51.302;17.068;2024-02-26T08:13:48;20.50;;;10.50;;
77217;SDS011;66214;51.302;17.068;2024-02-26T08:16:17;19.60;;;9.10;;
77217;SDS011;66214;51.302;17.068;2024-02-26T08:18:45;20.00;;;10.10;;
77217;SDS011;66214;51.302;17.068;2024-02-26T08:21:14;18.10;;;9.60;;
77217;SDS011;66214;51.302;17.068;2024-02-26T08:23:43;19.20;;;9.50;;
77217;SDS011;66214;51.302;17.068;2024-02-26T08:26:11;19.80;;;10.60;;
77217;SDS011;66214;51.302;17.068;2024-02-26T08:28:40;23.40;;;11.30;;
77217;SDS011;66214;51.302;17.068;2024-02-26T08:31:08;20.60;;;10.30;;
77217;SDS011;66214;51.302;17.068;2024-02-26T08:33:36;17.20;;;9.30;;
77217;SDS011;66214;51.302;17.068;2024-02-26T08:36:05;19.10;;;9.30;;
77217;SDS011;66214;51.302;17.068;2024-02-26T11:03:51;5.50;;;2.50;;
77217;SDS011;66214;51.302;17.068;2024-02-26T11:06:21;5.20;;;2.10;;
77217;SDS011;66214;51.302;17.068;2024-02-26T11:08:50;5.30;;;2.40;;
77217;SDS011;66214;51.302;17.068;2024-02-26T11:11:20;5.60;;;2.40;;
77217;SDS011;66214;51.302;17.068;2024-02-26T11:13:49;6.10;;;2.40;;
77217;SDS011;66214;51.302;17.068;2024-02-26T11:16:20;7.10;;;3.30;;
77217;SDS011;66214;51.302;17.068;2024-02-26T11:18:49;6.20;;;3.10;;
77217;SDS011;66214;51.302;17.068;2024-02-26T11:21:20;7.20;;;2.70;;
77217;SDS011;66214;51.302;17.068;2024-02-26T11:23:58;6.00;;;2.70;;
77217;SDS011;66214;51.302;17.068;2024-02-26T11:26:26;10.40;;;3.80;;
77217;SDS011;66214;51.302;17.068;2024-02-26T11:28:56;7.20;;;3.00;;
77217;SDS011;66214;51.302;17.068;2024-02-26T11:31:26;6.60;;;3.40;;
77217;SDS011;66214;51.302;17.068;2024-02-26T11:33:56;6.40;;;3.10;;
77217;SDS011;66214;51.302;17.068;2024-02-26T11:36:26;6.50;;;3.10;;
77217;SDS011;66214;51.302;17.068;2024-02-26T11:38:55;6.80;;;2.80;;
77217;SDS011;66214;51.302;17.068;2024-02-26T11:41:23;7.50;;;3.20;;
77217;SDS011;66214;51.302;17.068;2024-02-26T11:43:57;6.70;;;2.90;;
77217;SDS011;66214;51.302;17.068;2024-02-26T11:46:38;7.00;;;3.10;;
77217;SDS011;66214;51.302;17.068;2024-02-26T11:55:32;8.80;;;3.20;;
77217;SDS011;66214;51.302;17.068;2024-02-26T11:58:01;5.80;;;2.80;;
77217;SDS011;66214;51.302;17.068;2024-02-26T12:00:31;13.10;;;3.30;;
77217;SDS011;66214;51.302;17.068;2024-02-26T12:03:01;6.30;;;3.00;;
77217;SDS011;66214;51.302;17.068;2024-02-26T12:05:32;7.10;;;2.80;;
77217;SDS011;66214;51.302;17.068;2024-02-26T12:08:04;6.80;;;2.90;;
77217;SDS011;66214;51.302;17.068;2024-02-26T12:10:39;6.70;;;3.30;;
77217;SDS011;66214;51.302;17.068;2024-02-26T12:13:14;7.40;;;2.70;;
77217;SDS011;66214;51.302;17.068;2024-02-26T12:15:45;7.10;;;3.30;;
77217;SDS011;66214;51.302;17.068;2024-02-26T12:18:23;7.10;;;3.00;;
77217;SDS011;66214;51.302;17.068;2024-02-26T12:21:03;6.60;;;2.70;;
77217;SDS011;66214;51.302;17.068;2024-02-26T12:23:32;6.60;;;3.00;;
77217;SDS011;66214;51.302;17.068;2024-02-26T12:26:01;7.20;;;2.90;;
77217;SDS011;66214;51.302;17.068;2024-02-26T12:28:31;5.40;;;2.60;;
77217;SDS011;66214;51.302;17.068;2024-02-26T12:31:01;5.80;;;2.30;;
77217;SDS011;66214;51.302;17.068;2024-02-26T12:33:30;6.80;;;2.40;;
77217;SDS011;66214;51.302;17.068;2024-02-26T12:36:03;4.80;;;2.10;;
77217;SDS011;66214;51.302;17.068;2024-02-26T12:38:31;5.60;;;2.20;;
77217;SDS011;66214;51.302;17.068;2024-02-26T12:41:01;4.80;;;2.00;;
77217;SDS011;66214;51.302;17.068;2024-02-26T12:47:04;5.60;;;2.00;;
77217;SDS011;66214;51.302;17.068;2024-02-26T12:49:34;5.80;;;2.40;;
77217;SDS011;66214;51.302;17.068;2024-02-26T12:52:08;5.40;;;1.90;;
77217;SDS011;66214;51.302;17.068;2024-02-26T12:54:37;5.90;;;2.20;;
77217;SDS011;66214;51.302;17.068;2024-02-26T12:57:07;6.70;;;2.00;;
77217;SDS011;66214;51.302;17.068;2024-02-26T12:59:37;6.20;;;2.20;;
77217;SDS011;66214;51.302;17.068;2024-02-26T13:02:08;5.00;;;2.10;;
77217;SDS011;66214;51.302;17.068;2024-02-26T13:04:38;6.00;;;2.00;;
77217;SDS011;66214;51.302;17.068;2024-02-26T13:07:07;5.70;;;2.10;;
77217;SDS011;66214;51.302;17.068;2024-02-26T13:09:36;5.40;;;2.10;;
77217;SDS011;66214;51.302;17.068;2024-02-26T13:12:06;4.80;;;2.00;;
77217;SDS011;66214;51.302;17.068;2024-02-26T13:14:35;4.90;;;2.00;;
77217;SDS011;66214;51.302;17.068;2024-02-26T13:17:04;5.80;;;2.30;;
77217;SDS011;66214;51.302;17.068;2024-02-26T13:19:33;4.20;;;2.00;;
77217;SDS011;66214;51.302;17.068;2024-02-26T13:22:06;6.40;;;2.10;;
77217;SDS011;66214;51.302;17.068;2024-02-26T13:30:38;6.00;;;2.10;;
77217;SDS011;66214;51.302;17.068;2024-02-26T13:33:11;5.40;;;1.90;;
77217;SDS011;66214;51.302;17.068;2024-02-26T13:35:41;4.90;;;1.80;;
77217;SDS011;66214;51.302;17.068;2024-02-26T13:38:10;5.40;;;2.10;;
77217;SDS011;66214;51.302;17.068;2024-02-26T13:40:40;6.70;;;2.10;;
77217;SDS011;66214;51.302;17.068;2024-02-26T13:43:08;5.60;;;2.20;;
77217;SDS011;66214;51.302;17.068;2024-02-26T13:45:38;5.40;;;1.90;;
77217;SDS011;66214;51.302;17.068;2024-02-26T13:48:08;7.30;;;2.20;;
77217;SDS011;66214;51.302;17.068;2024-02-26T13:50:42;6.70;;;1.90;;
77217;SDS011;66214;51.302;17.068;2024-02-26T13:53:13;5.70;;;2.40;;
77217;SDS011;66214;51.302;17.068;2024-02-26T13:55:43;4.90;;;2.00;;
77217;SDS011;66214;51.302;17.068;2024-02-26T13:58:13;6.20;;;2.00;;
77217;SDS011;66214;51.302;17.068;2024-02-26T14:03:50;6.00;;;2.40;;
77217;SDS011;66214;51.302;17.068;2024-02-26T14:06:19;6.10;;;2.10;;
77217;SDS011;66214;51.302;17.068;2024-02-26T14:12:14;5.80;;;2.40;;
77217;SDS011;66214;51.302;17.068;2024-02-26T14:14:44;7.30;;;2.90;;
77217;SDS011;66214;51.302;17.068;2024-02-26T14:17:16;5.80;;;2.40;;
77217;SDS011;66214;51.302;17.068;2024-02-26T14:19:45;6.00;;;2.20;;
77217;SDS011;66214;51.302;17.068;2024-02-26T14:22:16;8.20;;;2.40;;
77217;SDS011;66214;51.302;17.068;2024-02-26T14:24:44;6.80;;;2.50;;
77217;SDS011;66214;51.302;17.068;2024-02-26T14:27:15;6.70;;;2.30;;
77217;SDS011;66214;51.302;17.068;2024-02-26T14:29:46;7.40;;;2.60;;
77217;SDS011;66214;51.302;17.068;2024-02-26T14:32:15;9.00;;;3.10;;
77217;SDS011;66214;51.302;17.068;2024-02-26T14:34:43;14.00;;;3.70;;
77217;SDS011;66214;51.302;17.068;2024-02-26T14:37:12;9.40;;;3.20;;
77217;SDS011;66214;51.302;17.068;2024-02-26T14:39:40;11.10;;;3.70;;
77217;SDS011;66214;51.302;17.068;2024-02-26T14:42:08;14.70;;;4.50;;
77217;SDS011;66214;51.302;17.068;2024-02-26T14:44:37;14.10;;;4.70;;
77217;SDS011;66214;51.302;17.068;2024-02-26T14:47:05;17.30;;;4.50;;
77217;SDS011;66214;51.302;17.068;2024-02-26T14:49:34;15.90;;;4.40;;
77217;SDS011;66214;51.302;17.068;2024-02-26T14:52:03;13.40;;;4.20;;
77217;SDS011;66214;51.302;17.068;2024-02-26T14:54:31;13.70;;;3.70;;
77217;SDS011;66214;51.302;17.068;2024-02-26T14:57:05;12.20;;;3.90;;
77217;SDS011;66214;51.302;17.068;2024-02-26T14:59:34;11.50;;;4.00;;
77217;SDS011;66214;51.302;17.068;2024-02-26T15:02:05;12.60;;;3.90;;
77217;SDS011;66214;51.302;17.068;2024-02-26T15:04:35;11.70;;;3.90;;
77217;SDS011;66214;51.302;17.068;2024-02-26T15:07:04;11.80;;;3.70;;
77217;SDS011;66214;51.302;17.068;2024-02-26T15:09:33;12.70;;;4.50;;
77217;SDS011;66214;51.302;17.068;2024-02-26T15:12:06;12.60;;;3.90;;
77217;SDS011;66214;51.302;17.068;2024-02-26T15:14:36;11.40;;;4.10;;
77217;SDS011;66214;51.302;17.068;2024-02-26T15:17:04;12.80;;;4.30;;
77217;SDS011;66214;51.302;17.068;2024-02-26T15:19:33;9.50;;;3.70;;
77217;SDS011;66214;51.302;17.068;2024-02-26T15:22:00;12.30;;;4.10;;
77217;SDS011;66214;51.302;17.068;2024-02-26T15:24:29;10.50;;;3.90;;
77217;SDS011;66214;51.302;17.068;2024-02-26T15:26:57;16.20;;;5.10;;
77217;SDS011;66214;51.302;17.068;2024-02-26T15:29:28;15.20;;;4.10;;
77217;SDS011;66214;51.302;17.068;2024-02-26T15:31:57;16.60;;;4.30;;
77217;SDS011;66214;51.302;17.068;2024-02-26T15:34:25;15.20;;;3.90;;
77217;SDS011;66214;51.302;17.068;2024-02-26T15:36:53;15.90;;;4.40;;
77217;SDS011;66214;51.302;17.068;2024-02-26T15:39:22;14.70;;;3.80;;
77217;SDS011;66214;51.302;17.068;2024-02-26T15:41:51;10.00;;;3.30;;
77217;SDS011;66214;51.302;17.068;2024-02-26T15:44:19;14.10;;;3.80;;
77217;SDS011;66214;51.302;17.068;2024-02-26T15:46:47;12.90;;;4.20;;
77217;SDS011;66214;51.302;17.068;2024-02-26T15:49:16;11.80;;;4.10;;
77217;SDS011;66214;51.302;17.068;2024-02-26T15:51:44;9.80;;;3.70;;
77217;SDS011;66214;51.302;17.068;2024-02-26T15:54:13;15.10;;;5.30;;
77217;SDS011;66214;51.302;17.068;2024-02-26T15:56:41;16.70;;;5.00;;
77217;SDS011;66214;51.302;17.068;2024-02-26T15:59:11;14.00;;;4.90;;
77217;SDS011;66214;51.302;17.068;2024-02-26T16:01:39;14.90;;;4.40;;
77217;SDS011;66214;51.302;17.068;2024-02-26T16:04:09;16.20;;;4.80;;
77217;SDS011;66214;51.302;17.068;2024-02-26T16:06:41;18.70;;;4.60;;
77217;SDS011;66214;51.302;17.068;2024-02-26T16:09:12;25.40;;;6.90;;
77217;SDS011;66214;51.302;17.068;2024-02-26T16:11:41;17.40;;;5.30;;
77217;SDS011;66214;51.302;17.068;2024-02-26T16:14:41;24.30;;;5.50;;
77217;SDS011;66214;51.302;17.068;2024-02-26T16:17:44;16.90;;;5.20;;
77217;SDS011;66214;51.302;17.068;2024-02-26T16:20:17;23.90;;;5.40;;
77217;SDS011;66214;51.302;17.068;2024-02-26T16:22:47;19.90;;;6.00;;
77217;SDS011;66214;51.302;17.068;2024-02-26T16:25:17;17.90;;;5.20;;
77217;SDS011;66214;51.302;17.068;2024-02-26T16:27:46;14.40;;;4.70;;
77217;SDS011;66214;51.302;17.068;2024-02-26T16:30:16;14.40;;;4.90;;
77217;SDS011;66214;51.302;17.068;2024-02-26T16:32:45;17.70;;;5.00;;
77217;SDS011;66214;51.302;17.068;2024-02-26T16:35:13;15.80;;;5.00;;
77217;SDS011;66214;51.302;17.068;2024-02-26T16:37:42;12.80;;;5.40;;
77217;SDS011;66214;51.302;17.068;2024-02-26T16:40:13;14.60;;;5.50;;
77217;SDS011;66214;51.302;17.068;2024-02-26T16:43:07;15.20;;;4.60;;
77217;SDS011;66214;51.302;17.068;2024-02-26T16:45:37;16.10;;;5.60;;
77217;SDS011;66214;51.302;17.068;2024-02-26T16:48:06;15.20;;;5.80;;
77217;SDS011;66214;51.302;17.068;2024-02-26T16:50:36;11.40;;;4.90;;
77217;SDS011;66214;51.302;17.068;2024-02-26T16:53:05;19.20;;;8.60;;
77217;SDS011;66214;51.302;17.068;2024-02-26T16:55:33;17.80;;;5.60;;
77217;SDS011;66214;51.302;17.068;2024-02-26T16:58:02;17.40;;;4.70;;
77217;SDS011;66214;51.302;17.068;2024-02-26T17:03:49;11.10;;;4.50;;
77217;SDS011;66214;51.302;17.068;2024-02-26T17:06:18;25.60;;;16.00;;
77217;SDS011;66214;51.302;17.068;2024-02-26T17:08:51;13.10;;;6.10;;
77217;SDS011;66214;51.302;17.068;2024-02-26T17:11:23;13.40;;;4.90;;
77217;SDS011;66214;51.302;17.068;2024-02-26T17:13:52;15.80;;;6.10;;
77217;SDS011;66214;51.302;17.068;2024-02-26T17:16:20;21.20;;;7.20;;
77217;SDS011;66214;51.302;17.068;2024-02-26T17:18:48;26.60;;;7.00;;
77217;SDS011;66214;51.302;17.068;2024-02-26T17:21:42;26.10;;;6.90;;
77217;SDS011;66214;51.302;17.068;2024-02-26T17:24:11;20.60;;;7.10;;
77217;SDS011;66214;51.302;17.068;2024-02-26T17:26:40;22.90;;;8.80;;
77217;SDS011;66214;51.302;17.068;2024-02-26T17:29:12;14.10;;;6.20;;
77217;SDS011;66214;51.302;17.068;2024-02-26T17:31:42;24.20;;;8.90;;
77217;SDS011;66214;51.302;17.068;2024-02-26T17:34:11;189.00;;;57.40;;
77217;SDS011;66214;51.302;17.068;2024-02-26T17:36:39;698.20;;;289.70;;